createdAt,value
2022-11-16T00:01:05.005Z,93127.69
2022-11-16T00:04:07.966Z,93125.34
2022-11-16T00:07:12.175Z,93128.47
2022-11-16T00:10:16.091Z,93128.06
2022-11-16T00:13:20.381Z,93135.88
2022-11-16T00:16:23.927Z,93142.22
2022-11-16T00:19:28.188Z,93153.91
2022-11-16T00:22:31.887Z,93159.66
2022-11-16T00:25:35.508Z,93152.75
2022-11-16T00:28:39.088Z,93158.53
2022-11-16T00:31:45.426Z,93161.69
2022-11-16T00:34:49.049Z,93163.28
2022-11-16T00:37:53.228Z,93156.91
2022-11-16T00:40:57.150Z,93175.38
2022-11-16T00:44:01.174Z,93170.28
2022-11-16T00:47:04.030Z,93153.13
2022-11-16T00:50:08.218Z,93153.44
2022-11-16T00:53:14.750Z,93152.94
2022-11-16T00:56:18.001Z,93155.22
2022-11-16T00:59:21.815Z,93149.78
2022-11-16T01:02:30.053Z,93141.28
2022-11-16T01:05:33.068Z,93149.47
2022-11-16T01:08:38.889Z,93149.84
2022-11-16T01:12:01.017Z,93139.97
2022-11-16T01:15:10.074Z,93135.94
2022-11-16T01:18:13.673Z,93141.44
2022-11-16T01:21:17.633Z,93146.25
2022-11-16T01:24:20.510Z,93152.41
2022-11-16T01:27:24.519Z,93159.31
2022-11-16T01:30:29.305Z,93149.78
2022-11-16T01:33:38.998Z,93142.81
2022-11-16T01:36:46.808Z,93150.66
2022-11-16T01:39:52.053Z,93145.91
2022-11-16T01:42:55.761Z,93153.16
2022-11-16T01:45:59.759Z,93149.13
2022-11-16T01:49:16.793Z,93155.88
2022-11-16T01:52:26.197Z,93151.09
2022-11-16T01:55:32.977Z,93147.19
2022-11-16T01:58:55.861Z,93130.56
2022-11-16T02:02:02.533Z,93124.47
2022-11-16T02:05:08.233Z,93120.84
2022-11-16T02:08:54.538Z,93110.88
2022-11-16T02:12:29.397Z,93114.13
2022-11-16T02:15:35.639Z,93101.16
2022-11-16T02:19:06.795Z,93094.00
2022-11-16T02:22:48.011Z,93090.59
2022-11-16T02:26:22.975Z,93078.50
2022-11-16T02:29:34.852Z,93081.88
2022-11-16T02:32:57.831Z,93081.94
2022-11-16T02:36:03.710Z,93071.28
2022-11-16T02:39:16.555Z,93075.72
2022-11-16T02:42:26.797Z,93077.13
2022-11-16T02:45:36.977Z,93066.31
2022-11-16T02:48:47.404Z,93059.34
2022-11-16T02:51:53.078Z,93061.50
2022-11-16T02:54:56.640Z,93045.22
2022-11-16T02:58:03.164Z,93053.06
2022-11-16T03:01:15.235Z,93047.00
2022-11-16T03:04:31.430Z,93045.59
2022-11-16T03:08:06.240Z,93027.50
2022-11-16T03:11:30.266Z,93017.03
2022-11-16T03:15:00.525Z,93006.53
2022-11-16T03:18:05.527Z,92997.50
2022-11-16T03:21:19.331Z,92986.28
2022-11-16T03:24:24.122Z,92977.56
2022-11-16T03:27:39.388Z,92973.63
2022-11-16T03:30:51.498Z,92974.38
2022-11-16T03:33:58.837Z,92970.03
2022-11-16T03:37:04.929Z,92967.53
2022-11-16T03:40:13.735Z,92975.13
2022-11-16T03:43:20.911Z,92965.72
2022-11-16T03:46:25.773Z,92958.16
2022-11-16T03:49:31.624Z,92957.06
2022-11-16T03:52:36.514Z,92956.31
2022-11-16T03:55:40.220Z,92951.25
2022-11-16T03:58:47.893Z,92954.13
2022-11-16T04:01:50.860Z,92945.81
2022-11-16T04:05:14.483Z,92935.25
2022-11-16T04:08:37.298Z,92933.72
2022-11-16T04:12:00.328Z,92926.78
2022-11-16T04:15:22.259Z,92911.19
2022-11-16T04:18:44.794Z,92909.28
2022-11-16T04:22:15.430Z,92904.44
2022-11-16T04:25:28.212Z,92892.91
2022-11-16T04:28:34.781Z,92870.09
2022-11-16T04:31:59.756Z,92861.44
2022-11-16T04:35:22.213Z,92862.09
2022-11-16T04:38:26.270Z,92849.34
2022-11-16T04:41:50.334Z,92848.47
2022-11-16T04:45:13.079Z,92839.78
2022-11-16T04:48:28.218Z,92840.59
2022-11-16T04:51:32.549Z,92840.69
2022-11-16T04:54:36.272Z,92837.06
2022-11-16T04:57:39.736Z,92832.78
2022-11-16T05:00:43.883Z,92829.91
2022-11-16T05:03:47.798Z,92825.94
2022-11-16T05:06:51.662Z,92831.78
2022-11-16T05:09:56.034Z,92827.06
2022-11-16T05:12:59.534Z,92823.78
2022-11-16T05:16:03.862Z,92821.59
2022-11-16T05:19:25.964Z,92814.00
2022-11-16T05:22:30.007Z,92810.28
2022-11-16T05:25:36.920Z,92805.63
2022-11-16T05:28:45.201Z,92816.59
2022-11-16T05:31:50.069Z,92805.97
2022-11-16T05:34:54.682Z,92804.91
2022-11-16T05:37:59.044Z,92799.78
2022-11-16T05:41:03.295Z,92794.56
2022-11-16T05:44:07.479Z,92792.59
2022-11-16T05:47:10.777Z,92802.81
2022-11-16T05:50:14.088Z,92798.50
2022-11-16T05:53:22.251Z,92798.03
2022-11-16T05:56:26.149Z,92787.88
2022-11-16T05:59:30.653Z,92777.75
2022-11-16T06:02:36.251Z,92791.22
2022-11-16T06:05:40.843Z,92778.16
2022-11-16T06:08:48.482Z,92774.53
2022-11-16T06:11:56.922Z,92777.03
2022-11-16T06:15:00.838Z,92771.63
2022-11-16T06:18:04.710Z,92774.09
2022-11-16T06:21:09.184Z,92769.72
2022-11-16T06:24:13.145Z,92771.16
2022-11-16T06:27:18.361Z,92771.09
2022-11-16T06:30:21.967Z,92753.56
2022-11-16T06:33:30.829Z,92752.97
2022-11-16T06:36:40.132Z,92753.22
2022-11-16T06:39:43.593Z,92743.50
2022-11-16T06:42:47.519Z,92743.75
2022-11-16T06:45:56.985Z,92754.63
2022-11-16T06:49:00.311Z,92745.44
2022-11-16T06:52:04.104Z,92749.16
2022-11-16T06:55:07.635Z,92743.75
2022-11-16T06:58:13.130Z,92746.56
2022-11-16T07:01:18.755Z,92752.34
2022-11-16T07:04:25.293Z,92755.53
2022-11-16T07:07:33.003Z,92746.06
2022-11-16T07:10:39.650Z,92757.50
2022-11-16T07:13:43.946Z,92755.38
2022-11-16T07:16:48.111Z,92764.41
2022-11-16T07:19:51.470Z,92760.75
2022-11-16T07:22:56.077Z,92761.03
2022-11-16T07:26:05.533Z,92755.47
2022-11-16T07:29:27.181Z,92745.81
2022-11-16T07:32:51.865Z,92731.97
2022-11-16T07:36:27.936Z,92723.44
2022-11-16T07:39:32.869Z,92718.81
2022-11-16T07:42:36.657Z,92711.25
2022-11-16T07:45:49.510Z,92711.59
2022-11-16T07:48:53.589Z,92710.47
2022-11-16T07:52:14.770Z,92697.72
2022-11-16T07:55:33.072Z,92696.22
2022-11-16T07:58:38.338Z,92687.84
2022-11-16T08:01:44.469Z,92684.47
2022-11-16T08:04:48.175Z,92688.13
2022-11-16T08:07:52.442Z,92682.38
2022-11-16T08:11:04.743Z,92682.75
2022-11-16T08:14:09.034Z,92683.03
2022-11-16T08:17:12.454Z,92687.34
2022-11-16T08:20:17.707Z,92700.75
2022-11-16T08:23:23.237Z,92709.47
2022-11-16T08:26:28.453Z,92710.22
2022-11-16T08:29:40.878Z,92712.41
2022-11-16T08:32:46.594Z,92706.69
2022-11-16T08:36:14.020Z,92704.19
2022-11-16T08:39:18.710Z,92704.09
2022-11-16T08:42:22.077Z,92701.22
2022-11-16T08:45:25.731Z,92700.47
2022-11-16T08:48:32.815Z,92696.91
2022-11-16T08:51:37.044Z,92698.38
2022-11-16T08:54:41.944Z,92693.69
2022-11-16T08:57:45.965Z,92696.28
2022-11-16T09:00:53.219Z,92698.44
2022-11-16T09:03:57.240Z,92697.66
2022-11-16T09:07:00.215Z,92692.84
2022-11-16T09:10:03.515Z,92688.88
2022-11-16T09:13:07.228Z,92686.00
2022-11-16T09:16:11.690Z,92687.00
2022-11-16T09:19:14.964Z,92686.16
2022-11-16T09:22:18.984Z,92681.84
2022-11-16T09:25:24.020Z,92686.22
2022-11-16T09:28:28.168Z,92683.31
2022-11-16T09:31:35.138Z,92688.13
2022-11-16T09:34:39.064Z,92677.66
2022-11-16T09:37:41.888Z,92681.63
2022-11-16T09:40:48.405Z,92677.63
2022-11-16T09:44:23.786Z,92679.69
2022-11-16T09:47:53.080Z,92668.81
2022-11-16T09:51:02.293Z,92665.94
2022-11-16T09:54:10.326Z,92674.50
2022-11-16T09:57:19.641Z,92678.41
2022-11-16T10:00:24.538Z,92680.09
2022-11-16T10:03:29.910Z,92672.72
2022-11-16T10:07:05.026Z,92673.75
2022-11-16T10:10:17.519Z,92670.44
2022-11-16T10:13:38.341Z,92673.38
2022-11-16T10:17:14.904Z,92673.28
2022-11-16T10:20:42.469Z,92680.09
2022-11-16T10:23:52.529Z,92685.09
2022-11-16T10:26:59.990Z,92688.34
2022-11-16T10:30:20.302Z,92690.13
2022-11-16T10:33:25.535Z,92689.06
2022-11-16T10:36:33.221Z,92684.75
2022-11-16T10:39:41.139Z,92691.28
2022-11-16T10:42:46.408Z,92687.28
2022-11-16T10:46:13.575Z,92681.53
2022-11-16T10:49:29.808Z,92681.22
2022-11-16T10:52:33.777Z,92682.59
2022-11-16T10:55:37.486Z,92694.97
2022-11-16T10:59:08.622Z,92706.97
2022-11-16T11:02:31.965Z,92706.91
2022-11-16T11:05:37.123Z,92703.06
2022-11-16T11:08:40.741Z,92709.72
2022-11-16T11:12:35.967Z,92713.72
2022-11-16T11:15:41.317Z,92713.84
2022-11-16T11:18:45.318Z,92716.88
2022-11-16T11:21:49.985Z,92723.66
2022-11-16T11:24:54.773Z,92736.88
2022-11-16T11:28:32.369Z,92745.81
2022-11-16T11:31:47.441Z,92752.31
2022-11-16T11:34:54.657Z,92765.50
2022-11-16T11:38:07.705Z,92782.81
2022-11-16T11:41:19.865Z,92780.06
2022-11-16T11:44:26.550Z,92779.94
2022-11-16T11:47:58.086Z,92775.31
2022-11-16T11:51:41.476Z,92787.69
2022-11-16T11:54:50.058Z,92788.44
2022-11-16T11:57:55.082Z,92777.94
2022-11-16T12:01:25.682Z,92770.31
2022-11-16T12:05:01.534Z,92770.34
2022-11-16T12:08:13.100Z,92762.34
2022-11-16T12:11:49.705Z,92749.56
2022-11-16T12:15:11.288Z,92745.16
2022-11-16T12:18:33.389Z,92748.75
2022-11-16T12:22:19.575Z,92747.44
2022-11-16T12:25:32.346Z,92757.59
2022-11-16T12:28:51.524Z,92750.31
2022-11-16T12:32:14.061Z,92753.88
2022-11-16T12:35:20.790Z,92757.09
2022-11-16T12:38:43.024Z,92761.41
2022-11-16T12:42:04.597Z,92761.84
2022-11-16T12:45:41.852Z,92761.94
2022-11-16T12:48:45.533Z,92768.06
2022-11-16T12:52:06.620Z,92764.06
2022-11-16T12:55:27.830Z,92759.03
2022-11-16T12:58:38.117Z,92760.13
2022-11-16T13:02:09.312Z,92757.03
2022-11-16T13:05:34.120Z,92752.16
2022-11-16T13:09:04.499Z,92757.72
2022-11-16T13:12:14.798Z,92766.50
2022-11-16T13:15:26.241Z,92755.97
2022-11-16T13:18:32.181Z,92747.97
2022-11-16T13:21:47.507Z,92745.56
2022-11-16T13:25:13.426Z,92751.59
2022-11-16T13:28:33.377Z,92759.00
2022-11-16T13:31:57.059Z,92768.31
2022-11-16T13:35:01.929Z,92770.59
2022-11-16T13:38:09.693Z,92774.28
2022-11-16T13:41:36.477Z,92764.53
2022-11-16T13:44:40.328Z,92768.16
2022-11-16T13:47:55.741Z,92765.97
2022-11-16T13:51:03.564Z,92768.91
2022-11-16T13:57:34.327Z,92772.78
2022-11-16T14:00:43.236Z,92774.03
2022-11-16T14:03:52.431Z,92770.81
2022-11-16T14:06:58.960Z,92777.03
2022-11-16T14:10:06.497Z,92776.94
2022-11-16T14:13:47.494Z,92790.59
2022-11-16T14:16:52.302Z,92781.16
2022-11-16T14:19:56.375Z,92786.31
2022-11-16T14:23:02.972Z,92790.44
2022-11-16T14:26:14.519Z,92787.53
2022-11-16T14:29:21.504Z,92782.47
2022-11-16T14:32:29.286Z,92778.88
2022-11-16T14:35:36.000Z,92772.88
2022-11-16T14:38:43.637Z,92766.50
2022-11-16T14:41:48.699Z,92763.16
2022-11-16T14:45:05.952Z,92768.59
2022-11-16T14:48:21.837Z,92763.34
2022-11-16T14:51:30.921Z,92778.38
2022-11-16T14:54:47.676Z,92780.31
2022-11-16T14:58:25.613Z,92778.41
2022-11-16T15:01:33.890Z,92790.41
2022-11-16T15:04:39.539Z,92795.53
2022-11-16T15:07:45.235Z,92791.53
2022-11-16T15:10:52.361Z,92794.38
2022-11-16T15:13:56.874Z,92792.25
2022-11-16T15:17:01.139Z,92793.28
2022-11-16T15:20:14.135Z,92791.28
2022-11-16T15:23:19.726Z,92790.56
2022-11-16T15:26:25.135Z,92795.72
2022-11-16T15:29:28.256Z,92790.41
2022-11-16T15:32:38.915Z,92784.59
2022-11-16T15:35:42.456Z,92789.53
2022-11-16T15:38:46.426Z,92795.00
2022-11-16T15:41:50.807Z,92798.38
2022-11-16T15:44:55.398Z,92799.50
2022-11-16T15:48:02.298Z,92802.47
2022-11-16T15:51:05.387Z,92808.97
2022-11-16T15:54:27.469Z,92821.09
2022-11-16T15:57:31.453Z,92812.66
2022-11-16T16:00:38.169Z,92816.63
2022-11-16T16:03:54.541Z,92816.19
2022-11-16T16:07:01.799Z,92816.72
2022-11-16T16:10:25.591Z,92818.66
2022-11-16T16:13:33.291Z,92823.78
2022-11-16T16:16:39.342Z,92824.91
2022-11-16T16:19:53.752Z,92828.16
2022-11-16T16:23:13.954Z,92833.59
2022-11-16T16:26:18.135Z,92831.81
2022-11-16T16:29:22.027Z,92842.34
2022-11-16T16:32:33.681Z,92841.56
2022-11-16T16:35:38.378Z,92839.75
2022-11-16T16:38:42.866Z,92842.59
2022-11-16T16:41:46.724Z,92853.81
2022-11-16T16:44:51.962Z,92848.25
2022-11-16T16:47:55.580Z,92854.34
2022-11-16T16:51:00.598Z,92852.94
2022-11-16T16:54:04.955Z,92854.34
2022-11-16T16:57:15.151Z,92854.00
2022-11-16T17:00:19.224Z,92858.03
2022-11-16T17:03:23.280Z,92864.16
2022-11-16T17:06:27.787Z,92868.91
2022-11-16T17:09:32.611Z,92873.25
2022-11-16T17:12:36.324Z,92878.75
2022-11-16T17:15:43.233Z,92874.72
2022-11-16T17:18:48.215Z,92876.94
2022-11-16T17:21:53.724Z,92879.16
2022-11-16T17:24:57.467Z,92880.97
2022-11-16T17:28:02.295Z,92881.72
2022-11-16T17:31:10.607Z,92885.75
2022-11-16T17:34:18.535Z,92894.75
2022-11-16T17:37:22.911Z,92895.47
2022-11-16T17:40:27.796Z,92894.78
2022-11-16T17:43:34.913Z,92890.06
2022-11-16T17:46:39.934Z,92891.09
2022-11-16T17:49:44.249Z,92901.53
2022-11-16T17:52:49.413Z,92896.84
2022-11-16T17:55:54.605Z,92901.13
2022-11-16T17:59:01.716Z,92904.47
2022-11-16T18:02:11.512Z,92902.34
2022-11-16T18:05:16.164Z,92909.94
2022-11-16T18:08:19.754Z,92913.56
2022-11-16T18:11:26.343Z,92914.66
2022-11-16T18:14:30.847Z,92909.88
2022-11-16T18:17:35.867Z,92907.66
2022-11-16T18:20:43.207Z,92913.91
2022-11-16T18:23:49.286Z,92917.53
2022-11-16T18:26:52.792Z,92922.94
2022-11-16T18:29:56.459Z,92927.53
2022-11-16T18:33:00.929Z,92933.94
2022-11-16T18:36:05.984Z,92924.41
2022-11-16T18:39:10.229Z,92935.72
2022-11-16T18:42:14.238Z,92936.91
2022-11-16T18:45:18.638Z,92932.25
2022-11-16T18:48:21.563Z,92938.34
2022-11-16T18:51:26.853Z,92945.84
2022-11-16T18:54:30.054Z,92943.53
2022-11-16T18:57:33.239Z,92954.97
2022-11-16T19:00:36.916Z,92958.19
2022-11-16T19:03:41.083Z,92956.50
2022-11-16T19:06:44.689Z,92967.41
2022-11-16T19:09:48.302Z,92965.16
2022-11-16T19:12:52.006Z,92962.97
2022-11-16T19:15:56.287Z,92962.31
2022-11-16T19:19:02.097Z,92968.16
2022-11-16T19:22:05.641Z,92966.03
2022-11-16T19:25:10.132Z,92968.59
2022-11-16T19:28:13.726Z,92971.56
2022-11-16T19:31:21.214Z,92964.31
2022-11-16T19:34:26.742Z,92961.47
2022-11-16T19:37:33.718Z,92959.72
2022-11-16T19:40:38.507Z,92968.53
2022-11-16T19:43:42.224Z,92963.09
2022-11-16T19:46:45.479Z,92963.13
2022-11-16T19:49:50.977Z,92958.09
2022-11-16T19:52:54.008Z,92947.56
2022-11-16T19:55:57.936Z,92945.03
2022-11-16T19:59:01.556Z,92949.06
2022-11-16T20:02:05.493Z,92957.41
2022-11-16T20:05:09.587Z,92956.09
2022-11-16T20:08:12.762Z,92950.66
2022-11-16T20:11:30.581Z,92963.00
2022-11-16T20:14:34.487Z,92967.38
2022-11-16T20:17:38.055Z,92976.44
2022-11-16T20:20:42.025Z,92973.22
2022-11-16T20:23:46.070Z,92969.59
2022-11-16T20:26:50.548Z,92965.31
2022-11-16T20:29:54.113Z,92981.25
2022-11-16T20:32:57.801Z,92981.63
2022-11-16T20:36:06.758Z,92979.47
2022-11-16T20:39:14.878Z,92983.81
2022-11-16T20:42:20.321Z,92991.44
2022-11-16T20:45:23.197Z,92992.16
2022-11-16T20:48:26.757Z,93005.19
2022-11-16T20:51:30.360Z,93009.13
2022-11-16T20:54:33.988Z,93005.50
2022-11-16T20:57:36.920Z,93008.06
2022-11-16T21:00:40.597Z,93020.38
2022-11-16T21:03:47.324Z,93017.84
2022-11-16T21:06:51.107Z,93020.38
2022-11-16T21:10:13.419Z,93030.16
2022-11-16T21:13:36.463Z,93034.16
2022-11-16T21:16:39.627Z,93034.84
2022-11-16T21:19:59.483Z,93034.81
2022-11-16T21:23:06.536Z,93037.34
2022-11-16T21:26:14.556Z,93042.41
2022-11-16T21:29:17.824Z,93050.81
2022-11-16T21:32:21.778Z,93049.34
2022-11-16T21:35:27.841Z,93062.34
2022-11-16T21:38:32.969Z,93071.78
2022-11-16T21:41:37.011Z,93085.91
2022-11-16T21:44:42.743Z,93098.22
2022-11-16T21:47:45.636Z,93092.44
2022-11-16T21:50:48.516Z,93101.47
2022-11-16T21:53:52.135Z,93098.94
2022-11-16T21:56:55.780Z,93100.72
2022-11-16T21:59:59.022Z,93101.78
2022-11-16T22:03:02.771Z,93110.44
2022-11-16T22:06:26.093Z,93123.09
2022-11-16T22:09:29.621Z,93120.22
2022-11-16T22:12:32.651Z,93127.34
2022-11-16T22:15:35.505Z,93125.91
2022-11-16T22:18:39.493Z,93139.72
2022-11-16T22:21:42.568Z,93152.75
2022-11-16T22:24:46.269Z,93160.75
2022-11-16T22:28:19.089Z,93165.06
2022-11-16T22:31:15.305Z,93172.31
2022-11-16T22:34:18.952Z,93182.78
2022-11-16T22:37:23.266Z,93185.94
2022-11-16T22:40:26.559Z,93188.13
2022-11-16T22:43:33.541Z,93164.25
2022-11-16T22:46:37.348Z,93178.47
2022-11-16T22:49:41.221Z,93184.63
2022-11-16T22:52:44.064Z,93186.19
2022-11-16T22:55:48.039Z,93187.28
2022-11-16T22:58:51.881Z,93195.97
2022-11-16T23:01:55.877Z,93195.63
2022-11-16T23:04:58.698Z,93209.06
2022-11-16T23:08:01.676Z,93212.38
2022-11-16T23:11:25.982Z,93213.13
2022-11-16T23:14:47.966Z,93235.28
2022-11-16T23:17:51.911Z,93235.28
2022-11-16T23:21:14.030Z,93242.16
2022-11-16T23:24:35.494Z,93249.78
2022-11-16T23:28:03.215Z,93255.59
2022-11-16T23:31:06.120Z,93269.75
2022-11-16T23:34:09.665Z,93272.28
2022-11-16T23:37:13.656Z,93269.38
2022-11-16T23:40:16.895Z,93291.84
2022-11-16T23:43:39.153Z,93293.63
2022-11-16T23:46:42.136Z,93301.25
2022-11-16T23:49:45.119Z,93301.25
2022-11-16T23:52:48.070Z,93308.91
2022-11-16T23:55:52.030Z,93312.91
2022-11-16T23:58:57.945Z,93318.34
